sensor_id;sensor_type;location;lat;lon;timestamp;pressure;altitude;pressure_sealevel;temperature;humidity
15670;BME280;18524;45.190;5.732;2023-11-21T00:04:04;98927.50;;;11.56;100.00
15670;BME280;18524;45.190;5.732;2023-11-21T00:08:57;98928.34;;;11.57;100.00
15670;BME280;18524;45.190;5.732;2023-11-21T00:13:47;98930.84;;;11.58;100.00
15670;BME280;18524;45.190;5.732;2023-11-21T00:18:38;98921.03;;;11.61;100.00
15670;BME280;18524;45.190;5.732;2023-11-21T00:23:28;98920.47;;;11.57;100.00
15670;BME280;18524;45.190;5.732;2023-11-21T00:28:19;98915.09;;;11.58;100.00
15670;BME280;18524;45.190;5.732;2023-11-21T00:33:09;98900.44;;;11.66;100.00
15670;BME280;18524;45.190;5.732;2023-11-21T00:37:59;98898.06;;;11.53;100.00
15670;BME280;18524;45.190;5.732;2023-11-21T00:42:55;98904.03;;;11.55;100.00
15670;BME280;18524;45.190;5.732;2023-11-21T00:47:46;98901.25;;;11.56;100.00
15670;BME280;18524;45.190;5.732;2023-11-21T00:52:36;98897.06;;;11.44;100.00
15670;BME280;18524;45.190;5.732;2023-11-21T00:57:27;98893.50;;;11.55;100.00
15670;BME280;18524;45.190;5.732;2023-11-21T01:02:17;98896.78;;;11.47;100.00
15670;BME280;18524;45.190;5.732;2023-11-21T01:07:07;98900.22;;;11.38;100.00
15670;BME280;18524;45.190;5.732;2023-11-21T01:11:58;98894.44;;;11.44;100.00
15670;BME280;18524;45.190;5.732;2023-11-21T01:16:49;98890.28;;;11.42;100.00
15670;BME280;18524;45.190;5.732;2023-11-21T01:21:40;98895.31;;;11.54;100.00
15670;BME280;18524;45.190;5.732;2023-11-21T01:26:30;98898.06;;;11.53;100.00
15670;BME280;18524;45.190;5.732;2023-11-21T01:31:20;98894.72;;;11.41;100.00
15670;BME280;18524;45.190;5.732;2023-11-21T01:36:11;98898.56;;;11.37;100.00
15670;BME280;18524;45.190;5.732;2023-11-21T01:41:01;98891.25;;;11.41;100.00
15670;BME280;18524;45.190;5.732;2023-11-21T01:45:52;98901.06;;;11.39;100.00
15670;BME280;18524;45.190;5.732;2023-11-21T01:50:44;98898.56;;;11.37;100.00
15670;BME280;18524;45.190;5.732;2023-11-21T01:55:35;98887.38;;;11.35;100.00
15670;BME280;18524;45.190;5.732;2023-11-21T02:00:25;98879.91;;;11.40;100.00
15670;BME280;18524;45.190;5.732;2023-11-21T02:05:19;98874.94;;;11.27;100.00
15670;BME280;18524;45.190;5.732;2023-11-21T02:10:09;98867.19;;;11.36;100.00
15670;BME280;18524;45.190;5.732;2023-11-21T02:15:00;98859.31;;;11.36;100.00
15670;BME280;18524;45.190;5.732;2023-11-21T02:19:50;98850.63;;;11.45;100.00
15670;BME280;18524;45.190;5.732;2023-11-21T02:24:41;98849.25;;;11.41;100.00
15670;BME280;18524;45.190;5.732;2023-11-21T02:29:32;98839.56;;;11.22;100.00
15670;BME280;18524;45.190;5.732;2023-11-21T02:34:23;98834.41;;;11.11;100.00
15670;BME280;18524;45.190;5.732;2023-11-21T02:39:15;98832.31;;;11.14;100.00
15670;BME280;18524;45.190;5.732;2023-11-21T02:44:06;98828.19;;;11.12;100.00
15670;BME280;18524;45.190;5.732;2023-11-21T02:48:57;98825.47;;;11.23;100.00
15670;BME280;18524;45.190;5.732;2023-11-21T02:53:48;98819.09;;;11.16;100.00
15670;BME280;18524;45.190;5.732;2023-11-21T02:58:41;98813.94;;;11.14;100.00
15670;BME280;18524;45.190;5.732;2023-11-21T03:03:33;98811.59;;;11.11;100.00
15670;BME280;18524;45.190;5.732;2023-11-21T03:08:23;98812.66;;;10.89;100.00
15670;BME280;18524;45.190;5.732;2023-11-21T03:13:13;98822.19;;;10.90;100.00
15670;BME280;18524;45.190;5.732;2023-11-21T03:18:04;98818.88;;;10.88;100.00
15670;BME280;18524;45.190;5.732;2023-11-21T03:22:55;98813.72;;;10.77;100.00
15670;BME280;18524;45.190;5.732;2023-11-21T03:27:45;98816.94;;;10.90;100.00
15670;BME280;18524;45.190;5.732;2023-11-21T03:32:35;98817.75;;;10.81;100.00
15670;BME280;18524;45.190;5.732;2023-11-21T03:37:26;98810.41;;;10.75;100.00
15670;BME280;18524;45.190;5.732;2023-11-21T03:42:17;98809.44;;;10.76;100.00
15670;BME280;18524;45.190;5.732;2023-11-21T03:47:08;98800.50;;;10.88;100.00
15670;BME280;18524;45.190;5.732;2023-11-21T03:51:58;98800.50;;;10.88;100.00
15670;BME280;18524;45.190;5.732;2023-11-21T03:56:49;98801.66;;;10.65;100.00
15670;BME280;18524;45.190;5.732;2023-11-21T04:01:39;98796.81;;;10.60;100.00
15670;BME280;18524;45.190;5.732;2023-11-21T04:06:30;98800.03;;;10.74;100.00
15670;BME280;18524;45.190;5.732;2023-11-21T04:11:22;98808.03;;;10.72;100.00
15670;BME280;18524;45.190;5.732;2023-11-21T04:16:13;98812.72;;;10.69;100.00
15670;BME280;18524;45.190;5.732;2023-11-21T04:21:05;98828.06;;;10.73;100.00
15670;BME280;18524;45.190;5.732;2023-11-21T04:25:55;98816.88;;;10.71;100.00
15670;BME280;18524;45.190;5.732;2023-11-21T04:30:47;98827.50;;;10.70;100.00
15670;BME280;18524;45.190;5.732;2023-11-21T04:35:37;98832.81;;;10.79;100.00
15670;BME280;18524;45.190;5.732;2023-11-21T04:40:27;98844.97;;;10.90;100.00
15670;BME280;18524;45.190;5.732;2023-11-21T04:45:18;98834.50;;;10.90;100.00
15670;BME280;18524;45.190;5.732;2023-11-21T04:50:08;98835.34;;;11.00;100.00
15670;BME280;18524;45.190;5.732;2023-11-21T04:54:59;98828.94;;;10.83;100.00
15670;BME280;18524;45.190;5.732;2023-11-21T04:59:51;98849.00;;;10.63;100.00
15670;BME280;18524;45.190;5.732;2023-11-21T05:04:41;98854.03;;;10.76;100.00
15670;BME280;18524;45.190;5.732;2023-11-21T05:09:32;98837.25;;;10.88;100.00
15670;BME280;18524;45.190;5.732;2023-11-21T05:14:23;98840.28;;;10.93;100.00
15670;BME280;18524;45.190;5.732;2023-11-21T05:19:13;98840.03;;;10.96;100.00
15670;BME280;18524;45.190;5.732;2023-11-21T05:24:04;98841.38;;;10.91;100.00
15670;BME280;18524;45.190;5.732;2023-11-21T05:28:55;98832.97;;;10.87;100.00
15670;BME280;18524;45.190;5.732;2023-11-21T05:33:46;98828.81;;;10.85;100.00
15670;BME280;18524;45.190;5.732;2023-11-21T05:38:37;98822.34;;;10.99;100.00
15670;BME280;18524;45.190;5.732;2023-11-21T05:43:27;98826.63;;;11.00;100.00
15670;BME280;18524;45.190;5.732;2023-11-21T05:48:19;98823.84;;;10.82;100.00
15670;BME280;18524;45.190;5.732;2023-11-21T05:53:11;98830.75;;;10.92;100.00
15670;BME280;18524;45.190;5.732;2023-11-21T05:58:01;98834.25;;;11.03;100.00
15670;BME280;18524;45.190;5.732;2023-11-21T06:02:52;98832.44;;;10.93;100.00
15670;BME280;18524;45.190;5.732;2023-11-21T06:07:43;98834.13;;;10.74;100.00
15670;BME280;18524;45.190;5.732;2023-11-21T06:12:34;98827.09;;;10.74;100.00
15670;BME280;18524;45.190;5.732;2023-11-21T06:17:25;98822.75;;;10.84;100.00
15670;BME280;18524;45.190;5.732;2023-11-21T06:22:18;98821.22;;;10.91;100.00
15670;BME280;18524;45.190;5.732;2023-11-21T06:27:08;98822.06;;;10.92;100.00
15670;BME280;18524;45.190;5.732;2023-11-21T06:31:58;98837.94;;;10.90;100.00
15670;BME280;18524;45.190;5.732;2023-11-21T06:36:49;98853.06;;;10.77;100.00
15670;BME280;18524;45.190;5.732;2023-11-21T06:41:39;98846.88;;;10.78;100.00
15670;BME280;18524;45.190;5.732;2023-11-21T06:46:29;98843.63;;;10.95;100.00
15670;BME280;18524;45.190;5.732;2023-11-21T06:51:20;98846.53;;;11.12;100.00
15670;BME280;18524;45.190;5.732;2023-11-21T06:56:17;98841.75;;;11.17;100.00
15670;BME280;18524;45.190;5.732;2023-11-21T07:01:08;98841.56;;;10.99;100.00
15670;BME280;18524;45.190;5.732;2023-11-21T07:05:58;98840.28;;;10.93;100.00
15670;BME280;18524;45.190;5.732;2023-11-21T07:10:48;98843.47;;;10.97;100.00
15670;BME280;18524;45.190;5.732;2023-11-21T07:15:39;98848.59;;;10.99;100.00
15670;BME280;18524;45.190;5.732;2023-11-21T07:20:30;98857.00;;;10.92;100.00
15670;BME280;18524;45.190;5.732;2023-11-21T07:25:20;98854.94;;;10.96;100.00
15670;BME280;18524;45.190;5.732;2023-11-21T07:30:12;98847.25;;;11.14;100.00
15670;BME280;18524;45.190;5.732;2023-11-21T07:35:03;98846.72;;;11.20;100.00
15670;BME280;18524;45.190;5.732;2023-11-21T07:39:54;98854.50;;;11.31;100.00
15670;BME280;18524;45.190;5.732;2023-11-21T07:44:46;98853.25;;;11.35;100.00
15670;BME280;18524;45.190;5.732;2023-11-21T07:49:36;98852.84;;;11.40;100.00
15670;BME280;18524;45.190;5.732;2023-11-21T07:54:27;98848.28;;;11.51;100.00
15670;BME280;18524;45.190;5.732;2023-11-21T07:59:18;98856.19;;;11.61;100.00
15670;BME280;18524;45.190;5.732;2023-11-21T08:04:08;98843.78;;;11.92;100.00
15670;BME280;18524;45.190;5.732;2023-11-21T08:08:59;98847.88;;;12.24;100.00
15670;BME280;18524;45.190;5.732;2023-11-21T08:13:49;98839.97;;;12.43;100.00
15670;BME280;18524;45.190;5.732;2023-11-21T08:18:39;98839.00;;;12.44;100.00
15670;BME280;18524;45.190;5.732;2023-11-21T08:23:31;98825.97;;;12.42;100.00
15670;BME280;18524;45.190;5.732;2023-11-21T08:28:22;98825.00;;;12.80;100.00
15670;BME280;18524;45.190;5.732;2023-11-21T08:33:13;98832.41;;;12.95;100.00
15670;BME280;18524;45.190;5.732;2023-11-21T08:38:04;98833.13;;;12.60;100.00
15670;BME280;18524;45.190;5.732;2023-11-21T08:42:54;98825.81;;;12.53;100.00
15670;BME280;18524;45.190;5.732;2023-11-21T08:47:45;98822.78;;;12.48;100.00
15670;BME280;18524;45.190;5.732;2023-11-21T08:52:35;98833.19;;;12.40;100.00
15670;BME280;18524;45.190;5.732;2023-11-21T08:57:27;98832.09;;;12.33;100.00
15670;BME280;18524;45.190;5.732;2023-11-21T09:02:17;98829.28;;;12.44;100.00
15670;BME280;18524;45.190;5.732;2023-11-21T09:07:07;98832.19;;;12.51;100.00
15670;BME280;18524;45.190;5.732;2023-11-21T09:11:58;98830.31;;;12.34;100.00
15670;BME280;18524;45.190;5.732;2023-11-21T09:16:50;98825.63;;;12.28;100.00
15670;BME280;18524;45.190;5.732;2023-11-21T09:21:41;98833.91;;;12.33;100.00
15670;BME280;18524;45.190;5.732;2023-11-21T09:26:31;98828.75;;;12.78;100.00
15670;BME280;18524;45.190;5.732;2023-11-21T09:31:22;98824.81;;;12.92;100.00
15670;BME280;18524;45.190;5.732;2023-11-21T09:36:14;98824.19;;;12.80;100.00
15670;BME280;18524;45.190;5.732;2023-11-21T09:41:39;98837.28;;;12.52;100.00
15670;BME280;18524;45.190;5.732;2023-11-21T09:46:30;98830.78;;;12.57;100.00
15670;BME280;18524;45.190;5.732;2023-11-21T09:51:23;98837.84;;;12.56;100.00
15670;BME280;18524;45.190;5.732;2023-11-21T09:56:17;98840.59;;;12.64;100.00
15670;BME280;18524;45.190;5.732;2023-11-21T10:01:13;98841.97;;;12.59;100.00
15670;BME280;18524;45.190;5.732;2023-11-21T10:06:05;98833.25;;;12.58;100.00
15670;BME280;18524;45.190;5.732;2023-11-21T10:10:56;98833.25;;;12.58;100.00
15670;BME280;18524;45.190;5.732;2023-11-21T10:15:49;98835.38;;;12.45;100.00
15670;BME280;18524;45.190;5.732;2023-11-21T10:20:40;98818.28;;;12.21;100.00
15670;BME280;18524;45.190;5.732;2023-11-21T10:25:31;98813.56;;;12.25;100.00
15670;BME280;18524;45.190;5.732;2023-11-21T10:30:22;98817.16;;;12.24;100.00
15670;BME280;18524;45.190;5.732;2023-11-21T10:35:12;98811.47;;;12.38;100.00
15670;BME280;18524;45.190;5.732;2023-11-21T10:40:03;98807.03;;;12.39;100.00
15670;BME280;18524;45.190;5.732;2023-11-21T10:44:55;98810.44;;;12.49;100.00
15670;BME280;18524;45.190;5.732;2023-11-21T10:49:48;98795.25;;;12.43;100.00
15670;BME280;18524;45.190;5.732;2023-11-21T10:54:38;98795.97;;;12.26;100.00
15670;BME280;18524;45.190;5.732;2023-11-21T10:59:30;98787.31;;;12.06;100.00
15670;BME280;18524;45.190;5.732;2023-11-21T11:04:22;98791.50;;;11.89;100.00
15670;BME280;18524;45.190;5.732;2023-11-21T11:09:13;98792.31;;;12.09;100.00
15670;BME280;18524;45.190;5.732;2023-11-21T11:14:04;98794.50;;;12.13;100.00
15670;BME280;18524;45.190;5.732;2023-11-21T11:18:54;98786.03;;;12.29;100.00
15670;BME280;18524;45.190;5.732;2023-11-21T11:24:29;98783.56;;;12.55;100.00
15670;BME280;18524;45.190;5.732;2023-11-21T11:34:33;98773.16;;;12.63;100.00
15670;BME280;18524;45.190;5.732;2023-11-21T11:39:40;98768.97;;;12.70;100.00
15670;BME280;18524;45.190;5.732;2023-11-21T11:49:36;98757.94;;;12.67;100.00
15670;BME280;18524;45.190;5.732;2023-11-21T11:54:36;98760.66;;;12.75;100.00
15670;BME280;18524;45.190;5.732;2023-11-21T11:59:26;98762.50;;;12.65;100.00
15670;BME280;18524;45.190;5.732;2023-11-21T12:09:20;98754.72;;;12.63;100.00
15670;BME280;18524;45.190;5.732;2023-11-21T12:14:13;98751.16;;;12.64;100.00
15670;BME280;18524;45.190;5.732;2023-11-21T12:19:03;98742.22;;;12.75;100.00
15670;BME280;18524;45.190;5.732;2023-11-21T12:23:54;98754.84;;;12.71;100.00
15670;BME280;18524;45.190;5.732;2023-11-21T12:28:52;98746.66;;;12.74;100.00
15670;BME280;18524;45.190;5.732;2023-11-21T12:33:43;98754.19;;;12.60;100.00
15670;BME280;18524;45.190;5.732;2023-11-21T12:38:34;98745.19;;;12.62;100.00
15670;BME280;18524;45.190;5.732;2023-11-21T12:43:28;98741.72;;;12.62;100.00
15670;BME280;18524;45.190;5.732;2023-11-21T12:48:19;98749.38;;;12.55;100.00
15670;BME280;18524;45.190;5.732;2023-11-21T12:53:14;98747.44;;;12.57;100.00
15670;BME280;18524;45.190;5.732;2023-11-21T12:58:08;98753.38;;;12.59;100.00
15670;BME280;18524;45.190;5.732;2023-11-21T13:02:59;98757.94;;;12.57;100.00
15670;BME280;18524;45.190;5.732;2023-11-21T13:07:49;98763.75;;;12.61;100.00
15670;BME280;18524;45.190;5.732;2023-11-21T13:12:45;98763.22;;;12.57;100.00
15670;BME280;18524;45.190;5.732;2023-11-21T13:17:38;98760.69;;;12.65;100.00
15670;BME280;18524;45.190;5.732;2023-11-21T13:22:28;98761.09;;;12.70;100.00
15670;BME280;18524;45.190;5.732;2023-11-21T13:27:19;98770.78;;;12.70;100.00
15670;BME280;18524;45.190;5.732;2023-11-21T13:32:09;98769.16;;;12.59;100.00
15670;BME280;18524;45.190;5.732;2023-11-21T13:37:02;98759.38;;;12.51;100.00
15670;BME280;18524;45.190;5.732;2023-11-21T13:41:54;98761.75;;;12.45;100.00
15670;BME280;18524;45.190;5.732;2023-11-21T13:46:47;98762.88;;;12.42;100.00
15670;BME280;18524;45.190;5.732;2023-11-21T13:51:37;98761.16;;;12.51;100.00
15670;BME280;18524;45.190;5.732;2023-11-21T13:56:31;98760.28;;;12.60;100.00
15670;BME280;18524;45.190;5.732;2023-11-21T14:01:24;98741.19;;;12.58;100.00
15670;BME280;18524;45.190;5.732;2023-11-21T14:06:20;98746.44;;;12.58;100.00
15670;BME280;18524;45.190;5.732;2023-11-21T14:11:15;98744.66;;;12.59;100.00
15670;BME280;18524;45.190;5.732;2023-11-21T14:16:08;98745.31;;;12.61;100.00
15670;BME280;18524;45.190;5.732;2023-11-21T14:21:00;98745.78;;;12.56;100.00
15670;BME280;18524;45.190;5.732;2023-11-21T14:25:50;98752.16;;;12.53;100.00
15670;BME280;18524;45.190;5.732;2023-11-21T14:30:42;98750.44;;;12.62;100.00
15670;BME280;18524;45.190;5.732;2023-11-21T14:35:32;98743.81;;;12.58;100.00
15670;BME280;18524;45.190;5.732;2023-11-21T14:40:23;98745.38;;;12.51;100.00
15670;BME280;18524;45.190;5.732;2023-11-21T14:45:14;98725.16;;;12.51;100.00
15670;BME280;18524;45.190;5.732;2023-11-21T14:50:09;98733.00;;;12.34;100.00
15670;BME280;18524;45.190;5.732;2023-11-21T14:55:18;98745.72;;;12.38;100.00
15670;BME280;18524;45.190;5.732;2023-11-21T15:00:35;98738.56;;;12.31;100.00
15670;BME280;18524;45.190;5.732;2023-11-21T15:05:27;98738.28;;;12.34;100.00
15670;BME280;18524;45.190;5.732;2023-11-21T15:10:18;98743.53;;;12.24;100.00
15670;BME280;18524;45.190;5.732;2023-11-21T15:15:11;98742.31;;;12.28;100.00
15670;BME280;18524;45.190;5.732;2023-11-21T15:20:04;98751.91;;;12.47;100.00
15670;BME280;18524;45.190;5.732;2023-11-21T15:24:57;98749.81;;;12.50;100.00
15670;BME280;18524;45.190;5.732;2023-11-21T15:29:48;98765.16;;;12.55;100.00
15670;BME280;18524;45.190;5.732;2023-11-21T15:34:40;98779.88;;;12.48;100.00
15670;BME280;18524;45.190;5.732;2023-11-21T15:39:30;98779.56;;;12.51;100.00
15670;BME280;18524;45.190;5.732;2023-11-21T15:44:21;98791.69;;;12.34;100.00
15670;BME280;18524;45.190;5.732;2023-11-21T15:49:11;98789.50;;;12.30;100.00
15670;BME280;18524;45.190;5.732;2023-11-21T15:54:08;98793.50;;;12.24;100.00
15670;BME280;18524;45.190;5.732;2023-11-21T15:58:58;98787.97;;;12.17;100.00
15670;BME280;18524;45.190;5.732;2023-11-21T16:03:49;98800.03;;;12.10;100.00
15670;BME280;18524;45.190;5.732;2023-11-21T16:08:41;98806.41;;;12.08;100.00
15670;BME280;18524;45.190;5.732;2023-11-21T16:13:32;98814.47;;;11.97;100.00
15670;BME280;18524;45.190;5.732;2023-11-21T16:18:24;98827.88;;;11.94;100.00
15670;BME280;18524;45.190;5.732;2023-11-21T16:23:14;98836.19;;;11.99;100.00
15670;BME280;18524;45.190;5.732;2023-11-21T16:28:06;98839.63;;;12.09;100.00
15670;BME280;18524;45.190;5.732;2023-11-21T16:32:57;98845.81;;;12.17;100.00
15670;BME280;18524;45.190;5.732;2023-11-21T16:37:47;98842.50;;;12.15;100.00
15670;BME280;18524;45.190;5.732;2023-11-21T16:42:38;98845.00;;;12.17;100.00
15670;BME280;18524;45.190;5.732;2023-11-21T16:47:28;98840.06;;;11.95;100.00
15670;BME280;18524;45.190;5.732;2023-11-21T16:52:19;98836.56;;;11.75;100.00
15670;BME280;18524;45.190;5.732;2023-11-21T16:57:12;98861.84;;;11.66;100.00
15670;BME280;18524;45.190;5.732;2023-11-21T17:02:03;98857.31;;;11.58;100.00
15670;BME280;18524;45.190;5.732;2023-11-21T17:06:54;98861.44;;;11.61;100.00
15670;BME280;18524;45.190;5.732;2023-11-21T17:11:48;98862.69;;;11.67;100.00
15670;BME280;18524;45.190;5.732;2023-11-21T17:16:38;98872.50;;;11.74;100.00
15670;BME280;18524;45.190;5.732;2023-11-21T17:21:30;98874.19;;;11.85;100.00
15670;BME280;18524;45.190;5.732;2023-11-21T17:26:21;98870.88;;;11.83;100.00
15670;BME280;18524;45.190;5.732;2023-11-21T17:31:11;98869.75;;;11.85;100.00
15670;BME280;18524;45.190;5.732;2023-11-21T17:36:04;98875.44;;;11.81;100.00
15670;BME280;18524;45.190;5.732;2023-11-21T17:40:54;98871.44;;;11.86;100.00
15670;BME280;18524;45.190;5.732;2023-11-21T17:45:45;98872.53;;;11.84;100.00
15670;BME280;18524;45.190;5.732;2023-11-21T17:50:37;98867.16;;;11.95;100.00
15670;BME280;18524;45.190;5.732;2023-11-21T17:55:27;98874.06;;;11.86;100.00
15670;BME280;18524;45.190;5.732;2023-11-21T18:00:18;98877.47;;;11.77;100.00
15670;BME280;18524;45.190;5.732;2023-11-21T18:05:08;98875.41;;;11.71;99.62
15670;BME280;18524;45.190;5.732;2023-11-21T18:10:01;98899.59;;;11.65;99.68
15670;BME280;18524;45.190;5.732;2023-11-21T18:14:51;98884.13;;;11.72;96.78
15670;BME280;18524;45.190;5.732;2023-11-21T18:19:43;98884.97;;;11.82;97.77
15670;BME280;18524;45.190;5.732;2023-11-21T18:24:33;98886.63;;;11.83;96.42
15670;BME280;18524;45.190;5.732;2023-11-21T18:29:24;98900.06;;;11.80;94.11
15670;BME280;18524;45.190;5.732;2023-11-21T18:34:14;98896.59;;;11.89;92.59
15670;BME280;18524;45.190;5.732;2023-11-21T18:39:05;98904.06;;;11.84;94.66
15670;BME280;18524;45.190;5.732;2023-11-21T18:43:58;98916.22;;;11.85;94.94
15670;BME280;18524;45.190;5.732;2023-11-21T18:48:48;98919.97;;;11.82;95.05
15670;BME280;18524;45.190;5.732;2023-11-21T18:53:39;98934.44;;;11.77;95.89
15670;BME280;18524;45.190;5.732;2023-11-21T18:58:30;98929.59;;;11.72;95.37
15670;BME280;18524;45.190;5.732;2023-11-21T19:03:20;98919.66;;;11.76;96.28
15670;BME280;18524;45.190;5.732;2023-11-21T19:08:11;98934.03;;;11.72;95.72
15670;BME280;18524;45.190;5.732;2023-11-21T19:13:01;98938.88;;;11.76;95.04
15670;BME280;18524;45.190;5.732;2023-11-21T19:17:53;98956.00;;;11.71;95.95
15670;BME280;18524;45.190;5.732;2023-11-21T19:22:44;98952.41;;;11.72;95.78
15670;BME280;18524;45.190;5.732;2023-11-21T19:27:34;98947.44;;;11.59;93.26
15670;BME280;18524;45.190;5.732;2023-11-21T19:32:27;98954.91;;;11.64;93.98
15670;BME280;18524;45.190;5.732;2023-11-21T19:37:19;98958.22;;;11.66;92.48
15670;BME280;18524;45.190;5.732;2023-11-21T19:42:09;98976.75;;;11.64;91.72
15670;BME280;18524;45.190;5.732;2023-11-21T19:47:00;98978.28;;;11.67;91.04
15670;BME280;18524;45.190;5.732;2023-11-21T19:51:50;98969.56;;;11.66;89.29
15670;BME280;18524;45.190;5.732;2023-11-21T19:56:40;98990.97;;;11.62;90.50
15670;BME280;18524;45.190;5.732;2023-11-21T20:01:32;98982.69;;;11.66;90.72
15670;BME280;18524;45.190;5.732;2023-11-21T20:06:22;98993.31;;;11.55;90.41
15670;BME280;18524;45.190;5.732;2023-11-21T20:11:19;98990.94;;;11.52;93.54
15670;BME280;18524;45.190;5.732;2023-11-21T20:16:11;99003.50;;;11.48;90.89
15670;BME280;18524;45.190;5.732;2023-11-21T20:21:01;99003.31;;;11.40;92.77
15670;BME280;18524;45.190;5.732;2023-11-21T20:25:52;99019.50;;;11.45;93.33
15670;BME280;18524;45.190;5.732;2023-11-21T20:30:47;99035.84;;;11.49;91.82
15670;BME280;18524;45.190;5.732;2023-11-21T20:35:39;99014.69;;;11.50;89.46
15670;BME280;18524;45.190;5.732;2023-11-21T20:40:30;99036.44;;;11.52;89.28
15670;BME280;18524;45.190;5.732;2023-11-21T20:45:21;99027.78;;;11.41;90.56
15670;BME280;18524;45.190;5.732;2023-11-21T20:50:13;99045.78;;;11.45;90.04
15670;BME280;18524;45.190;5.732;2023-11-21T20:55:05;99027.13;;;11.48;91.17
15670;BME280;18524;45.190;5.732;2023-11-21T20:59:55;99048.88;;;11.30;92.66
15670;BME280;18524;45.190;5.732;2023-11-21T21:04:46;99047.88;;;11.21;90.85
15670;BME280;18524;45.190;5.732;2023-11-21T21:09:36;99031.09;;;11.12;90.93
15670;BME280;18524;45.190;5.732;2023-11-21T21:14:28;99041.81;;;11.00;92.32
15670;BME280;18524;45.190;5.732;2023-11-21T21:19:19;99057.28;;;11.03;90.47
15670;BME280;18524;45.190;5.732;2023-11-21T21:24:10;99064.38;;;11.12;92.95
15670;BME280;18524;45.190;5.732;2023-11-21T21:29:00;99067.59;;;10.94;94.45
15670;BME280;18524;45.190;5.732;2023-11-21T21:33:51;99075.59;;;10.93;92.90
15670;BME280;18524;45.190;5.732;2023-11-21T21:38:41;99070.22;;;10.94;93.20
15670;BME280;18524;45.190;5.732;2023-11-21T21:43:33;99087.88;;;10.92;94.14
15670;BME280;18524;45.190;5.732;2023-11-21T21:48:23;99093.84;;;10.94;93.76
15670;BME280;18524;45.190;5.732;2023-11-21T21:53:14;99089.53;;;10.93;94.09
15670;BME280;18524;45.190;5.732;2023-11-21T21:58:05;99098.75;;;10.88;94.90
15670;BME280;18524;45.190;5.732;2023-11-21T22:02:57;99102.53;;;10.95;94.66
15670;BME280;18524;45.190;5.732;2023-11-21T22:07:47;99072.59;;;10.98;94.41
15670;BME280;18524;45.190;5.732;2023-11-21T22:12:37;99090.88;;;11.09;92.59
15670;BME280;18524;45.190;5.732;2023-11-21T22:17:28;99096.13;;;11.09;92.42
15670;BME280;18524;45.190;5.732;2023-11-21T22:22:18;99110.72;;;11.02;93.08
15670;BME280;18524;45.190;5.732;2023-11-21T22:27:09;99113.94;;;11.05;93.31
15670;BME280;18524;45.190;5.732;2023-11-21T22:31:59;99106.44;;;11.01;92.23
15670;BME280;18524;45.190;5.732;2023-11-21T22:36:49;99110.47;;;11.05;95.67
15670;BME280;18524;45.190;5.732;2023-11-21T22:41:40;99121.41;;;11.10;94.89
15670;BME280;18524;45.190;5.732;2023-11-21T22:46:32;99111.13;;;11.18;92.11
15670;BME280;18524;45.190;5.732;2023-11-21T22:51:22;99119.25;;;11.15;89.94
15670;BME280;18524;45.190;5.732;2023-11-21T22:56:12;99109.22;;;11.20;92.38
15670;BME280;18524;45.190;5.732;2023-11-21T23:01:04;99114.38;;;11.10;94.52
15670;BME280;18524;45.190;5.732;2023-11-21T23:05:55;99117.09;;;11.20;90.61
15670;BME280;18524;45.190;5.732;2023-11-21T23:10:45;99117.22;;;11.18;92.61
15670;BME280;18524;45.190;5.732;2023-11-21T23:15:36;99116.16;;;11.10;92.38
15670;BME280;18524;45.190;5.732;2023-11-21T23:20:27;99125.59;;;11.12;91.39
15670;BME280;18524;45.190;5.732;2023-11-21T23:25:18;99127.59;;;11.20;91.19
15670;BME280;18524;45.190;5.732;2023-11-21T23:30:09;99118.94;;;11.29;90.37
15670;BME280;18524;45.190;5.732;2023-11-21T23:35:00;99110.78;;;11.11;93.16
15670;BME280;18524;45.190;5.732;2023-11-21T23:39:51;99114.84;;;11.15;92.76
15670;BME280;18524;45.190;5.732;2023-11-21T23:44:41;99114.47;;;11.20;94.25
15670;BME280;18524;45.190;5.732;2023-11-21T23:49:31;99116.84;;;11.23;92.13
15670;BME280;18524;45.190;5.732;2023-11-21T23:54:25;99110.19;;;11.19;89.96
15670;BME280;18524;45.190;5.732;2023-11-21T23:59:15;99109.66;;;11.25;91.46
